Time;durP1;ratioP1;P1;durP2;ratioP2;P2;SDS_P1;SDS_P2;PMS_P1;PMS_P2;Temp;Humidity;BMP_temperature;BMP_pressure;BME280_temperature;BME280_humidity;BME280_pressure;Samples;Min_cycle;Max_cycle;Signal;HPM_P1;HPM_P2
2022/04/02 00:01:43;;;;;;;8.25;3.47;;;3.30;46.20;;;;;;5072415;28;20056;-70
2022/04/02 00:04:09;;;;;;;13.73;3.30;;;3.30;46.30;;;;;;5072723;28;20071;-70
2022/04/02 00:06:36;;;;;;;13.85;3.33;;;3.30;46.50;;;;;;5072459;28;20028;-69
2022/04/02 00:09:03;;;;;;;8.15;3.60;;;3.20;46.40;;;;;;5072422;28;20029;-70
2022/04/02 00:11:29;;;;;;;17.75;3.20;;;3.20;46.90;;;;;;5072449;28;20053;-70
2022/04/02 00:14:00;;;;;;;9.93;2.75;;;3.30;46.60;;;;;;5072600;28;20024;-70
2022/04/02 00:16:26;;;;;;;;;;;3.20;47.10;;;;;;5091995;28;20092;-70
2022/04/02 00:18:51;;;;;;;11.65;2.65;;;3.20;46.60;;;;;;5078112;28;20425;-70
2022/04/02 00:21:18;;;;;;;15.00;3.42;;;3.20;46.70;;;;;;5072218;28;20416;-70
2022/04/02 00:23:44;;;;;;;11.38;3.17;;;3.20;46.90;;;;;;5072463;28;20076;-70
2022/04/02 00:26:12;;;;;;;12.32;2.83;;;3.20;46.80;;;;;;5072319;28;20027;-70
2022/04/02 00:28:39;;;;;;;15.50;3.33;;;3.20;46.60;;;;;;5071976;28;20017;-70
2022/04/02 00:31:07;;;;;;;11.82;3.20;;;3.10;46.00;;;;;;5071529;28;20488;-70
2022/04/02 00:33:34;;;;;;;14.20;2.88;;;3.10;45.70;;;;;;5071425;28;20035;-69
2022/04/02 00:35:59;;;;;;;11.10;3.70;;;3.10;46.20;;;;;;5071471;28;20031;-70
2022/04/02 00:38:25;;;;;;;9.43;3.10;;;3.00;45.50;;;;;;5071080;28;20096;-70
2022/04/02 00:40:51;;;;;;;8.65;3.25;;;3.00;46.10;;;;;;5071171;28;20104;-71
2022/04/02 00:43:32;;;;;;;11.45;2.90;;;3.00;45.60;;;;;;5071442;28;20033;-71
2022/04/02 00:45:59;;;;;;;;;;;3.00;46.00;;;;;;5078624;28;20028;-70
2022/04/02 00:48:27;;;;;;;6.43;3.00;;;2.90;46.10;;;;;;5091209;28;19955;-70
2022/04/02 00:50:55;;;;;;;17.17;3.75;;;2.80;46.20;;;;;;5091434;28;20047;-70
2022/04/02 00:53:25;;;;;;;10.35;2.80;;;2.80;45.80;;;;;;5091304;28;20039;-70
2022/04/02 00:55:51;;;;;;;14.88;3.67;;;2.70;45.40;;;;;;5091279;28;20085;-70
2022/04/02 00:58:17;;;;;;;15.10;3.70;;;2.70;46.00;;;;;;5091199;28;20043;-71
2022/04/02 01:00:44;;;;;;;8.30;3.00;;;2.70;46.00;;;;;;5091531;28;20338;-72
2022/04/02 01:03:11;;;;;;;17.52;3.22;;;2.70;46.10;;;;;;5091303;28;20020;-72
2022/04/02 01:05:38;;;;;;;6.10;2.97;;;2.70;46.30;;;;;;5091373;28;20044;-71
2022/04/02 01:08:08;;;;;;;12.20;3.00;;;2.70;46.60;;;;;;5091593;28;20350;-71
2022/04/02 01:10:36;;;;;;;8.95;3.40;;;2.60;46.20;;;;;;5091078;28;20032;-72
2022/04/02 01:13:02;;;;;;;7.32;2.50;;;2.60;46.60;;;;;;5091102;28;20078;-70
2022/04/02 01:15:28;;;;;;;12.18;2.80;;;2.60;46.60;;;;;;5079802;28;20021;-71
2022/04/02 01:17:54;;;;;;;10.98;2.83;;;2.60;46.10;;;;;;5071225;28;20024;-70
2022/04/02 01:20:19;;;;;;;11.02;2.97;;;2.60;46.20;;;;;;5070981;28;20109;-70
2022/04/02 01:22:49;;;;;;;7.30;3.05;;;2.50;46.20;;;;;;5070798;28;20032;-70
2022/04/02 01:25:15;;;;;;;8.57;2.92;;;2.40;46.00;;;;;;5071315;28;20047;-70
2022/04/02 01:27:42;;;;;;;12.65;3.10;;;2.40;46.80;;;;;;5070721;28;20039;-70
2022/04/02 01:30:08;;;;;;;13.05;3.40;;;2.30;46.70;;;;;;5071153;28;20155;-71
2022/04/02 01:32:34;;;;;;;7.57;3.63;;;2.30;47.00;;;;;;5078452;28;20103;-72
2022/04/02 01:34:59;;;;;;;10.60;4.18;;;2.30;47.70;;;;;;5075930;28;20571;-71
2022/04/02 01:37:25;;;;;;;15.55;5.30;;;2.30;47.50;;;;;;5076721;28;20025;-71
2022/04/02 01:39:51;;;;;;;15.68;4.15;;;2.20;48.20;;;;;;5075078;28;20035;-70
2022/04/02 01:42:24;;;;;;;9.63;3.50;;;2.20;49.00;;;;;;5075303;28;20029;-70
2022/04/02 01:44:52;;;;;;;5.72;3.17;;;2.10;48.20;;;;;;5076393;28;20017;-70
2022/04/02 01:47:19;;;;;;;6.38;3.03;;;2.00;48.60;;;;;;5075212;28;20042;-70
2022/04/02 01:49:46;;;;;;;9.02;3.95;;;2.00;49.20;;;;;;5075335;28;20028;-70
2022/04/02 01:52:15;;;;;;;7.22;2.85;;;2.00;49.40;;;;;;5074705;28;20040;-70
2022/04/02 01:54:40;;;;;;;6.75;3.42;;;2.00;49.80;;;;;;5075217;28;20056;-70
2022/04/02 01:57:06;;;;;;;13.15;3.80;;;2.00;50.20;;;;;;5075388;28;20063;-70
2022/04/02 01:59:31;;;;;;;10.63;3.70;;;1.90;50.30;;;;;;5075748;28;20028;-69
2022/04/02 02:01:57;;;;;;;11.18;3.42;;;1.90;50.40;;;;;;5074601;28;20510;-69
2022/04/02 02:04:23;;;;;;;6.20;3.03;;;1.90;50.60;;;;;;5074303;28;20025;-69
2022/04/02 02:06:48;;;;;;;11.20;3.88;;;1.90;50.70;;;;;;5073728;28;20036;-69
2022/04/02 02:09:14;;;;;;;6.00;3.20;;;2.00;51.70;;;;;;5074233;28;20492;-70
2022/04/02 02:11:41;;;;;;;9.70;3.95;;;1.90;50.40;;;;;;5074848;28;20079;-70
2022/04/02 02:14:07;;;;;;;9.25;3.33;;;1.80;50.50;;;;;;5074491;28;20029;-70
2022/04/02 02:16:33;;;;;;;12.18;4.82;;;1.80;50.60;;;;;;5083711;28;20107;-70
2022/04/02 02:18:59;;;;;;;8.90;3.08;;;1.70;50.50;;;;;;5074977;28;20090;-70
2022/04/02 02:21:24;;;;;;;9.43;2.75;;;1.60;50.80;;;;;;5075103;28;20412;-70
2022/04/02 02:23:50;;;;;;;7.95;3.10;;;1.60;51.00;;;;;;5073738;28;20039;-71
2022/04/02 02:26:16;;;;;;;5.88;3.17;;;1.60;50.80;;;;;;5073910;28;20032;-69
2022/04/02 02:28:42;;;;;;;5.80;2.65;;;1.50;51.00;;;;;;5071829;28;20489;-70
2022/04/02 02:31:07;;;;;;;7.38;3.70;;;1.60;52.00;;;;;;5073455;28;20044;-70
2022/04/02 02:36:18;;;;;;;6.53;3.40;;;1.50;52.20;;;;;;5073473;28;20086;-70
2022/04/02 02:38:44;;;;;;;6.80;3.97;;;1.50;51.90;;;;;;5072960;28;20021;-69
2022/04/02 02:41:10;;;;;;;9.75;3.83;;;1.50;53.70;;;;;;5071963;28;20032;-69
2022/04/02 02:43:37;;;;;;;6.55;2.70;;;1.50;52.90;;;;;;5073487;28;20367;-69
2022/04/02 02:46:02;;;;;;;4.15;2.60;;;1.40;52.70;;;;;;5072992;28;20016;-69
2022/04/02 02:48:28;;;;;;;11.98;3.55;;;1.30;54.10;;;;;;5072650;28;21031;-70
2022/04/02 02:50:54;;;;;;;10.35;2.72;;;1.40;55.40;;;;;;5071531;28;20025;-70
2022/04/02 02:53:19;;;;;;;6.55;3.00;;;1.30;54.70;;;;;;5072755;28;20032;-70
2022/04/02 02:55:45;;;;;;;3.90;2.80;;;1.30;55.40;;;;;;5072919;28;20025;-70
2022/04/02 02:58:10;;;;;;;7.55;2.92;;;1.30;55.60;;;;;;5071206;28;20020;-71
2022/04/02 03:00:36;;;;;;;6.00;2.95;;;1.30;56.30;;;;;;5072841;28;20028;-71
2022/04/02 03:03:02;;;;;;;5.00;2.60;;;1.30;57.00;;;;;;5072377;28;20429;-71
2022/04/02 03:05:27;;;;;;;8.40;2.47;;;1.30;56.10;;;;;;5072578;28;20027;-71
2022/04/02 03:07:55;;;;;;;8.52;3.35;;;1.30;56.10;;;;;;5072353;28;20040;-72
2022/04/02 03:10:22;;;;;;;7.15;2.83;;;1.20;56.90;;;;;;5072717;28;20059;-71
2022/04/02 03:12:50;;;;;;;7.82;2.88;;;1.10;56.40;;;;;;5072875;28;20067;-70
2022/04/02 03:15:16;;;;;;;6.22;2.95;;;1.00;56.30;;;;;;5081468;28;20054;-71
2022/04/02 03:17:43;;;;;;;7.25;2.95;;;0.90;57.20;;;;;;5072644;28;20303;-70
2022/04/02 03:20:11;;;;;;;8.38;2.63;;;1.00;58.20;;;;;;5071919;28;20056;-71
2022/04/02 03:22:39;;;;;;;5.25;3.58;;;1.00;57.40;;;;;;5073656;28;20040;-70
2022/04/02 03:25:10;;;;;;;6.60;2.83;;;1.00;58.50;;;;;;5072289;28;20513;-70
2022/04/02 03:27:36;;;;;;;;;;;1.00;57.70;;;;;;5072735;28;20020;-69
2022/04/02 03:30:04;;;;;;;4.95;3.30;;;1.00;58.10;;;;;;5072031;28;19911;-70
2022/04/02 03:32:29;;;;;;;14.98;3.33;;;1.00;58.60;;;;;;5072169;28;20028;-70
2022/04/02 03:34:55;;;;;;;7.78;2.97;;;1.00;58.10;;;;;;5071199;28;20027;-70
2022/04/02 03:37:20;;;;;;;7.93;2.85;;;0.80;58.30;;;;;;5078603;28;20020;-70
2022/04/02 03:39:46;;;;;;;8.05;2.80;;;0.70;58.10;;;;;;5075871;28;20028;-70
2022/04/02 03:42:11;;;;;;;10.15;3.00;;;0.50;58.40;;;;;;5079352;28;20028;-69
2022/04/02 03:44:37;;;;;;;5.93;3.30;;;0.40;58.70;;;;;;5072482;28;20029;-70
2022/04/02 03:47:09;;;;;;;10.10;2.83;;;0.40;59.30;;;;;;5075635;28;20474;-68
2022/04/02 03:49:40;;;;;;;7.35;3.50;;;0.30;59.30;;;;;;5071411;28;20482;-70
2022/04/02 03:52:07;;;;;;;5.75;2.45;;;0.30;60.20;;;;;;5071177;28;20017;-70
2022/04/02 03:54:36;;;;;;;5.20;2.50;;;0.30;60.30;;;;;;5072283;28;20102;-69
2022/04/02 03:57:06;;;;;;;6.53;2.78;;;0.20;60.30;;;;;;5070925;28;20032;-68
2022/04/02 03:59:32;;;;;;;6.68;2.60;;;0.20;61.00;;;;;;5069871;28;20039;-69
2022/04/02 04:01:59;;;;;;;4.63;2.42;;;0.10;60.70;;;;;;5071613;28;20489;-69
2022/04/02 04:04:26;;;;;;;7.50;2.42;;;0.00;61.30;;;;;;5071190;28;20029;-70
2022/04/02 04:06:52;;;;;;;5.60;2.92;;;0.00;61.50;;;;;;5070469;28;20382;-70
2022/04/02 04:09:18;;;;;;;8.23;2.85;;;0.00;62.10;;;;;;5070787;28;20552;-70
2022/04/02 04:11:44;;;;;;;4.35;2.67;;;0.00;62.20;;;;;;5078814;28;20016;-70
2022/04/02 04:14:09;;;;;;;5.57;2.25;;;-3276.70;62.50;;;;;;5071326;28;20051;-70
2022/04/02 04:16:35;;;;;;;6.72;3.20;;;-3276.70;63.00;;;;;;5079608;28;20546;-70
2022/04/02 04:19:01;;;;;;;5.82;2.80;;;-3276.60;63.20;;;;;;5070373;28;20024;-70
2022/04/02 04:21:26;;;;;;;5.43;3.13;;;-3276.60;63.60;;;;;;5071069;28;20047;-69
2022/04/02 04:23:52;;;;;;;4.15;2.58;;;-3276.60;63.90;;;;;;5069717;28;20025;-70
2022/04/02 04:26:18;;;;;;;5.80;2.38;;;-3276.60;63.80;;;;;;5070675;28;20035;-70
2022/04/02 04:28:43;;;;;;;4.65;2.13;;;-3276.60;64.60;;;;;;5070417;28;20021;-70
2022/04/02 04:31:09;;;;;;;4.82;2.40;;;-3276.60;64.70;;;;;;5071036;28;20032;-70
2022/04/02 04:33:37;;;;;;;3.42;2.50;;;-3276.70;64.70;;;;;;5070877;28;20089;-70
2022/04/02 04:36:03;;;;;;;5.60;2.75;;;-3276.70;64.50;;;;;;5070732;28;20020;-71
2022/04/02 04:38:32;;;;;;;5.68;2.28;;;-3276.70;64.80;;;;;;5068984;28;20025;-69
2022/04/02 04:40:58;;;;;;;8.27;3.10;;;-3276.70;65.20;;;;;;5069418;28;20179;-68
2022/04/02 04:43:24;;;;;;;3.97;2.33;;;0.00;66.40;;;;;;5070611;28;20569;-70
2022/04/02 04:45:49;;;;;;;5.43;2.40;;;-3276.70;65.40;;;;;;5078875;28;20025;-70
2022/04/02 04:48:15;;;;;;;6.30;2.60;;;0.00;65.30;;;;;;5069878;28;20033;-70
2022/04/02 04:50:41;;;;;;;4.25;2.50;;;-3276.70;65.50;;;;;;5070801;28;20154;-69
2022/04/02 04:53:06;;;;;;;7.65;2.83;;;-3276.60;65.60;;;;;;5070725;28;20028;-69
2022/04/02 04:55:32;;;;;;;4.30;2.70;;;-3276.60;66.20;;;;;;5070541;28;20024;-69
2022/04/02 04:57:57;;;;;;;6.28;3.08;;;-3276.60;66.50;;;;;;5069454;28;20017;-70
2022/04/02 05:00:23;;;;;;;6.15;2.55;;;-3276.70;66.60;;;;;;5071069;28;20076;-70
2022/04/02 05:02:49;;;;;;;7.38;2.17;;;-3276.70;67.00;;;;;;5071858;28;20020;-70
2022/04/02 05:05:14;;;;;;;7.53;2.60;;;0.00;66.50;;;;;;5070561;28;20024;-69
2022/04/02 05:07:43;;;;;;;6.80;2.97;;;0.00;66.50;;;;;;5074081;28;20035;-70
2022/04/02 05:10:10;;;;;;;5.40;2.60;;;0.00;66.40;;;;;;5074136;28;20440;-69
2022/04/02 05:12:37;;;;;;;8.82;2.80;;;0.00;66.50;;;;;;5087811;28;20059;-70
2022/04/02 05:15:04;;;;;;;5.85;2.65;;;0.10;66.60;;;;;;5082256;28;20120;-69
2022/04/02 05:17:31;;;;;;;5.88;2.85;;;0.00;66.40;;;;;;5074353;28;20508;-71
2022/04/02 05:19:57;;;;;;;7.03;3.08;;;0.10;67.10;;;;;;5072965;28;20028;-70
2022/04/02 05:22:22;;;;;;;6.43;3.55;;;0.10;66.90;;;;;;5074032;28;20060;-70
2022/04/02 05:24:48;;;;;;;12.10;2.88;;;0.20;67.40;;;;;;5072586;28;20032;-70
2022/04/02 05:27:14;;;;;;;9.93;3.40;;;0.30;66.80;;;;;;5073283;28;20093;-70
2022/04/02 05:29:39;;;;;;;6.93;2.85;;;0.30;66.90;;;;;;5074247;28;20021;-70
2022/04/02 05:32:08;;;;;;;5.85;2.90;;;0.30;67.10;;;;;;5073969;28;20035;-69
2022/04/02 05:34:34;;;;;;;4.82;2.65;;;0.40;67.20;;;;;;5075006;28;20032;-70
2022/04/02 05:36:59;;;;;;;5.32;3.28;;;0.30;67.10;;;;;;5073780;28;20496;-69
2022/04/02 05:39:25;;;;;;;6.75;3.08;;;0.30;66.80;;;;;;5074085;28;20052;-69
2022/04/02 05:41:53;;;;;;;2.92;2.20;;;0.40;66.40;;;;;;5074252;28;20110;-70
2022/04/02 05:44:19;;;;;;;5.38;2.78;;;0.50;66.60;;;;;;5074753;28;20055;-68
2022/04/02 05:46:45;;;;;;;5.45;2.83;;;0.60;66.80;;;;;;5081049;28;20082;-70
2022/04/02 05:49:11;;;;;;;5.68;2.50;;;0.60;66.90;;;;;;5073031;28;20063;-70
2022/04/02 05:51:37;;;;;;;6.28;3.42;;;0.50;67.10;;;;;;5073478;28;20558;-70
2022/04/02 05:54:03;;;;;;;4.75;2.97;;;0.60;66.80;;;;;;5073420;28;20083;-69
2022/04/02 05:56:29;;;;;;;5.57;3.00;;;0.50;66.70;;;;;;5073627;28;20032;-69
2022/04/02 05:58:55;;;;;;;7.22;3.13;;;0.70;67.60;;;;;;5087917;28;20028;-70
2022/04/02 06:01:23;;;;;;;6.50;2.25;;;0.70;67.30;;;;;;5093684;28;20035;-70
2022/04/02 06:03:49;;;;;;;4.20;2.42;;;0.80;66.40;;;;;;5092107;28;20024;-70
2022/04/02 06:06:14;;;;;;;7.22;2.85;;;0.80;66.40;;;;;;5093270;28;20080;-71
2022/04/02 06:08:40;;;;;;;7.45;2.97;;;0.90;66.60;;;;;;5092954;28;20030;-70
2022/04/02 06:11:08;;;;;;;5.40;2.88;;;0.90;66.50;;;;;;5077790;28;20033;-69
2022/04/02 06:13:34;;;;;;;9.85;3.53;;;0.90;67.30;;;;;;5073127;28;20458;-70
2022/04/02 06:16:00;;;;;;;6.85;2.85;;;0.90;67.20;;;;;;5082198;28;20059;-70
2022/04/02 06:18:26;;;;;;;6.72;2.63;;;1.00;66.30;;;;;;5070743;28;20230;-70
2022/04/02 06:20:51;;;;;;;8.98;2.65;;;0.90;66.20;;;;;;5073010;28;20104;-69
2022/04/02 06:23:18;;;;;;;7.43;3.30;;;1.10;67.00;;;;;;5072644;28;20031;-69
2022/04/02 06:25:44;;;;;;;6.30;2.65;;;1.20;67.00;;;;;;5071501;28;20103;-69
2022/04/02 06:28:10;;;;;;;3.72;2.50;;;1.20;65.90;;;;;;5069810;28;20123;-71
2022/04/02 06:30:36;;;;;;;7.78;2.65;;;1.20;66.20;;;;;;5072287;28;20072;-70
2022/04/02 06:33:01;;;;;;;12.45;3.80;;;1.00;65.90;;;;;;5072017;28;20021;-70
2022/04/02 06:35:27;;;;;;;12.30;3.63;;;1.20;66.80;;;;;;5072063;28;20028;-69
2022/04/02 06:37:56;;;;;;;10.38;2.97;;;1.40;66.50;;;;;;5071328;28;20064;-70
2022/04/02 06:40:25;;;;;;;5.90;2.58;;;1.50;65.90;;;;;;5071950;28;20074;-69
2022/04/02 06:42:51;;;;;;;6.07;2.90;;;1.50;64.90;;;;;;5072719;28;20020;-70
2022/04/02 06:45:18;;;;;;;9.65;2.85;;;1.20;65.50;;;;;;5080331;28;20639;-70
2022/04/02 06:47:44;;;;;;;7.70;2.38;;;1.50;66.80;;;;;;5072102;28;20024;-70
2022/04/02 06:50:12;;;;;;;7.63;3.13;;;1.70;66.50;;;;;;5072221;28;20025;-70
2022/04/02 06:52:38;;;;;;;6.53;2.60;;;1.60;64.50;;;;;;5072882;28;20028;-69
2022/04/02 06:55:04;;;;;;;4.85;3.03;;;1.70;65.10;;;;;;5070331;28;20048;-66
2022/04/02 06:57:30;;;;;;;5.18;3.20;;;1.90;64.90;;;;;;5071686;28;20050;-68
2022/04/02 06:59:56;;;;;;;8.63;3.45;;;2.10;64.50;;;;;;5072597;28;20104;-69
2022/04/02 07:02:21;;;;;;;5.70;2.53;;;2.30;64.10;;;;;;5072029;28;20032;-70
2022/04/02 07:04:48;;;;;;;9.10;2.95;;;2.60;62.40;;;;;;5072182;28;20032;-69
2022/04/02 07:07:14;;;;;;;5.47;2.60;;;2.90;61.40;;;;;;5071344;28;20025;-69
2022/04/02 07:09:40;;;;;;;6.38;2.92;;;3.30;60.70;;;;;;5071175;28;20049;-68
2022/04/02 07:12:06;;;;;;;4.93;2.10;;;3.40;59.40;;;;;;5077354;28;20028;-67
2022/04/02 07:14:33;;;;;;;6.18;3.80;;;3.60;59.10;;;;;;5088628;28;20509;-70
2022/04/02 07:17:01;;;;;;;6.97;2.80;;;3.70;57.60;;;;;;5072042;28;20074;-71
2022/04/02 07:19:28;;;;;;;5.93;2.63;;;3.50;59.10;;;;;;5071841;28;20081;-68
2022/04/02 07:21:54;;;;;;;5.05;2.97;;;3.50;58.70;;;;;;5071822;28;20029;-68
2022/04/02 07:24:21;;;;;;;7.95;3.50;;;3.30;58.30;;;;;;5071628;28;20029;-67
2022/04/02 07:26:48;;;;;;;6.65;2.65;;;3.20;58.80;;;;;;5072136;28;20114;-68
2022/04/02 07:29:15;;;;;;;8.18;3.90;;;3.00;59.80;;;;;;5070811;28;20432;-66
2022/04/02 07:31:44;;;;;;;11.77;7.13;;;3.20;59.20;;;;;;5074371;28;20073;-71
2022/04/02 07:34:11;;;;;;;8.65;4.18;;;3.10;60.30;;;;;;5091820;28;20039;-72
2022/04/02 07:36:48;;;;;;;138.07;57.95;;;3.30;59.30;;;;;;5080000;28;20032;-72
2022/04/02 07:39:22;;;;;;;9.43;4.53;;;3.60;61.60;;;;;;5071446;28;20025;-72
2022/04/02 07:42:12;;;;;;;7.45;3.85;;;3.90;58.00;;;;;;5072947;28;20086;-71
2022/04/02 07:44:57;;;;;;;10.85;3.80;;;3.90;57.50;;;;;;5068230;28;20108;-70
2022/04/02 07:47:28;;;;;;;12.38;4.72;;;3.90;57.30;;;;;;5090959;28;20028;-70
2022/04/02 07:50:00;;;;;;;15.13;6.95;;;4.00;58.00;;;;;;5085710;28;20033;-69
2022/04/02 07:52:28;;;;;;;24.17;8.90;;;4.50;56.50;;;;;;5071224;28;20445;-70
2022/04/02 07:54:57;;;;;;;4.53;2.60;;;4.60;56.20;;;;;;5070049;28;20029;-70
2022/04/02 07:57:32;;;;;;;11.18;5.32;;;5.10;52.00;;;;;;5069449;28;20218;-70
2022/04/02 08:00:03;;;;;;;10.63;6.22;;;4.90;53.70;;;;;;5070906;28;20404;-71
2022/04/02 08:02:37;;;;;;;6.80;3.47;;;5.90;52.00;;;;;;5071367;28;20020;-70
2022/04/02 08:05:05;;;;;;;4.65;2.67;;;6.60;48.10;;;;;;5070992;28;20115;-71
2022/04/02 08:07:31;;;;;;;4.38;2.90;;;7.40;48.00;;;;;;5070383;28;20024;-72
2022/04/02 08:09:58;;;;;;;9.18;5.40;;;6.30;46.00;;;;;;5071078;28;20135;-70
2022/04/02 08:12:25;;;;;;;6.95;2.80;;;6.00;48.70;;;;;;5071420;28;20513;-70
2022/04/02 08:14:51;;;;;;;5.78;2.50;;;5.60;48.30;;;;;;5075855;28;20028;-70
2022/04/02 08:17:19;;;;;;;8.02;2.25;;;4.80;50.10;;;;;;5073651;28;20032;-70
2022/04/02 08:19:45;;;;;;;5.30;2.35;;;4.60;51.10;;;;;;5069859;28;20032;-70
2022/04/02 08:22:11;;;;;;;4.22;2.95;;;4.60;51.50;;;;;;5071269;28;20494;-69
2022/04/02 08:24:37;;;;;;;8.00;2.75;;;4.60;52.30;;;;;;5071723;28;20131;-71
2022/04/02 08:27:11;;;;;;;5.47;2.63;;;5.00;51.30;;;;;;5071244;28;20028;-69
2022/04/02 08:30:02;;;;;;;3.47;2.50;;;4.50;50.80;;;;;;5071591;28;20029;-71
2022/04/02 08:32:31;;;;;;;;;;;4.10;51.70;;;;;;5071827;28;20055;-70
2022/04/02 08:35:13;;;;;;;3.75;2.35;;;3.30;52.80;;;;;;5071188;28;19927;-70
2022/04/02 08:38:10;;;;;;;7.90;2.85;;;3.10;53.90;;;;;;5071412;28;20401;-70
2022/04/02 08:41:03;;;;;;;7.15;3.03;;;3.10;54.10;;;;;;5073820;28;20035;-71
2022/04/02 08:44:04;;;;;;;11.70;3.17;;;3.20;53.90;;;;;;5076039;28;20040;-69
2022/04/02 08:46:54;;;;;;;5.97;2.00;;;3.70;55.30;;;;;;5094703;28;20500;-71
2022/04/02 08:49:37;;;;;;;5.53;2.05;;;4.10;51.50;;;;;;5094310;28;20059;-71
2022/04/02 08:52:14;;;;;;;3.63;2.50;;;3.50;51.60;;;;;;5092817;28;20030;-69
2022/04/02 08:55:15;;;;;;;5.95;2.78;;;3.30;52.70;;;;;;5084956;28;20493;-70
2022/04/02 08:57:53;;;;;;;4.13;2.63;;;3.30;53.00;;;;;;5073510;28;20025;-70
2022/04/02 09:00:24;;;;;;;10.15;3.15;;;3.20;53.60;;;;;;5081906;28;20028;-73
2022/04/02 09:03:22;;;;;;;7.45;3.00;;;3.40;54.30;;;;;;5081560;28;20029;-71
2022/04/02 09:06:06;;;;;;;9.82;3.50;;;3.50;53.50;;;;;;5081991;28;20020;-71
2022/04/02 09:08:46;;;;;;;2.80;2.05;;;3.60;53.40;;;;;;5082996;28;20347;-69
2022/04/02 09:11:21;;;;;;;7.72;2.20;;;4.10;51.10;;;;;;5079639;28;20024;-69
2022/04/02 09:14:05;;;;;;;6.72;2.75;;;4.30;49.40;;;;;;5090931;28;20027;-70
2022/04/02 09:17:01;;;;;;;6.35;2.45;;;4.10;48.50;;;;;;5092017;28;20408;-67
2022/04/02 09:19:35;;;;;;;7.45;2.83;;;3.90;49.50;;;;;;5090263;28;20524;-68
2022/04/02 09:22:33;;;;;;;9.15;2.97;;;4.00;50.30;;;;;;5078512;28;20424;-67
2022/04/02 09:24:58;;;;;;;9.57;2.85;;;4.20;49.20;;;;;;5083216;28;20036;-70
2022/04/02 09:27:36;;;;;;;5.07;2.10;;;4.20;48.60;;;;;;5089920;28;20031;-69
2022/04/02 09:30:36;;;;;;;3.72;1.88;;;4.40;48.00;;;;;;5078334;28;20028;-69
2022/04/02 09:33:16;;;;;;;4.75;2.00;;;4.70;48.20;;;;;;5081753;28;20028;-70
2022/04/02 09:35:53;;;;;;;3.97;1.98;;;5.20;47.60;;;;;;5090955;28;20024;-70
2022/04/02 09:38:43;;;;;;;19.73;11.00;;;5.30;46.60;;;;;;5079138;28;20500;-71
2022/04/02 09:41:36;;;;;;;4.07;2.30;;;5.50;47.70;;;;;;5080860;28;20158;-70
2022/04/02 09:44:16;;;;;;;7.72;3.65;;;4.90;46.80;;;;;;5081709;28;20021;-70
2022/04/02 09:47:00;;;;;;;5.35;2.15;;;4.80;48.50;;;;;;5078261;28;20080;-69
2022/04/02 09:49:47;;;;;;;6.13;2.22;;;4.80;47.20;;;;;;5080376;28;20012;-68
2022/04/02 09:52:21;;;;;;;4.03;2.28;;;4.50;47.90;;;;;;5083942;28;20071;-72
2022/04/02 09:55:10;;;;;;;7.68;2.55;;;4.20;48.50;;;;;;5083572;28;20127;-70
2022/04/02 09:57:48;;;;;;;4.18;2.15;;;4.20;49.30;;;;;;5091295;28;20028;-71
2022/04/02 10:00:18;;;;;;;2.92;1.70;;;4.50;48.10;;;;;;5082350;28;20036;-70
2022/04/02 10:02:54;;;;;;;5.95;2.30;;;4.50;47.80;;;;;;5082604;28;20402;-68
2022/04/02 10:05:31;;;;;;;9.77;2.72;;;4.70;46.60;;;;;;5074540;28;20024;-68
2022/04/02 10:08:05;;;;;;;3.67;2.17;;;4.70;46.70;;;;;;5080818;28;20482;-69
2022/04/02 10:10:31;;;;;;;4.13;2.13;;;5.30;47.60;;;;;;5076526;28;20411;-68
2022/04/02 10:12:57;;;;;;;8.55;2.72;;;5.50;44.80;;;;;;5081980;28;20027;-68
2022/04/02 10:15:24;;;;;;;3.58;2.15;;;5.20;45.30;;;;;;5082430;28;20032;-71
2022/04/02 10:17:52;;;;;;;5.47;2.03;;;5.10;45.90;;;;;;5075870;28;20470;-70
2022/04/02 10:20:28;;;;;;;5.82;2.55;;;4.90;45.90;;;;;;5071054;28;20017;-69
2022/04/02 10:23:14;;;;;;;3.28;1.75;;;5.00;45.20;;;;;;5076716;28;20038;-70
2022/04/02 10:25:57;;;;;;;4.20;2.33;;;4.80;46.30;;;;;;5079881;28;20561;-70
2022/04/02 10:28:29;;;;;;;3.83;2.42;;;5.00;45.10;;;;;;5073628;28;20024;-70
2022/04/02 10:30:56;;;;;;;;;;;5.10;44.30;;;;;;5072030;28;20021;-71
2022/04/02 10:33:28;;;;;;;3.80;2.05;;;5.00;44.80;;;;;;5069145;28;19904;-70
2022/04/02 10:35:55;;;;;;;4.57;2.00;;;5.10;43.50;;;;;;5069095;28;20052;-70
2022/04/02 10:38:28;;;;;;;3.13;1.73;;;4.80;43.10;;;;;;5067209;28;20519;-70
2022/04/02 10:40:56;;;;;;;4.40;1.92;;;4.90;43.30;;;;;;5068985;28;20032;-70
2022/04/02 10:43:36;;;;;;;8.00;3.25;;;4.70;43.10;;;;;;5068536;28;20048;-70
2022/04/02 10:46:03;;;;;;;5.45;2.55;;;5.00;43.40;;;;;;5070226;28;20177;-70
2022/04/02 10:48:54;;;;;;;6.72;2.15;;;5.20;43.00;;;;;;5069758;28;20024;-70
2022/04/02 10:51:25;;;;;;;4.38;2.10;;;5.40;42.80;;;;;;5070818;28;20107;-70
2022/04/02 10:54:02;;;;;;;5.70;2.08;;;5.40;41.20;;;;;;5070190;28;20103;-70
2022/04/02 10:56:43;;;;;;;6.22;2.80;;;5.70;40.60;;;;;;5076499;28;20031;-71
2022/04/02 10:59:09;;;;;;;6.90;2.20;;;6.00;41.10;;;;;;5091231;28;20274;-70
2022/04/02 11:01:39;;;;;;;16.48;6.75;;;6.20;39.30;;;;;;5073621;28;20150;-71
2022/04/02 11:04:19;;;;;;;10.02;2.92;;;6.10;39.20;;;;;;5090424;28;20030;-70
2022/04/02 11:06:49;;;;;;;6.03;1.67;;;6.00;38.80;;;;;;5078281;28;20021;-70
2022/04/02 11:09:25;;;;;;;4.68;2.20;;;5.40;39.50;;;;;;5077141;28;20043;-70
2022/04/02 11:11:52;;;;;;;2.50;1.85;;;5.50;40.60;;;;;;5070974;28;20020;-70
2022/04/02 11:14:20;;;;;;;8.32;1.73;;;5.90;38.70;;;;;;5073391;28;20515;-70
2022/04/02 11:16:46;;;;;;;3.67;1.70;;;5.90;36.80;;;;;;5092428;28;20400;-71
2022/04/02 11:22:06;;;;;;;4.13;2.45;;;6.40;37.60;;;;;;5092652;28;20047;-70
2022/04/02 11:24:47;;;;;;;3.88;1.38;;;6.50;38.00;;;;;;5091851;28;20444;-70
2022/04/02 11:27:18;;;;;;;3.88;1.67;;;6.70;35.70;;;;;;5091929;28;20031;-70
2022/04/02 11:29:51;;;;;;;3.22;1.83;;;6.80;35.80;;;;;;5092401;28;20489;-70
2022/04/02 11:32:25;;;;;;;6.47;1.60;;;6.50;34.90;;;;;;5092321;28;20028;-70
2022/04/02 11:34:52;;;;;;;2.42;1.40;;;6.40;37.00;;;;;;5092094;28;20035;-70
2022/04/02 11:37:25;;;;;;;4.32;2.38;;;6.50;35.80;;;;;;5091946;28;20526;-69
2022/04/02 11:39:56;;;;;;;6.25;1.80;;;6.80;38.20;;;;;;5091979;28;20031;-70
2022/04/02 11:42:25;;;;;;;2.95;2.38;;;6.80;34.90;;;;;;5092099;28;20108;-69
2022/04/02 11:44:52;;;;;;;2.65;1.58;;;6.20;35.30;;;;;;5084893;28;20036;-70
2022/04/02 11:47:29;;;;;;;4.15;1.60;;;6.10;35.70;;;;;;5071352;28;20020;-71
2022/04/02 11:50:05;;;;;;;5.97;2.03;;;6.50;35.60;;;;;;5071644;28;20024;-71
2022/04/02 11:52:54;;;;;;;2.63;1.80;;;6.70;35.10;;;;;;5071591;28;20066;-70
2022/04/02 11:55:20;;;;;;;3.17;1.75;;;7.00;36.10;;;;;;5071471;28;20021;-70
2022/04/02 11:57:57;;;;;;;6.72;1.65;;;7.10;34.40;;;;;;5080360;28;20422;-70
2022/04/02 12:00:39;;;;;;;4.25;1.70;;;7.10;34.50;;;;;;5070330;28;20059;-70
2022/04/02 12:03:27;;;;;;;4.65;1.65;;;6.60;34.70;;;;;;5087701;28;20055;-70
2022/04/02 12:06:11;;;;;;;10.25;2.45;;;6.50;35.80;;;;;;5091733;28;20439;-70
2022/04/02 12:08:40;;;;;;;4.13;1.77;;;6.80;36.00;;;;;;5091647;28;20058;-70
2022/04/02 12:11:09;;;;;;;3.53;1.90;;;6.40;35.10;;;;;;5089778;28;20456;-70
2022/04/02 12:13:36;;;;;;;3.92;2.10;;;6.30;38.00;;;;;;5071392;28;20048;-70
2022/04/02 12:16:13;;;;;;;2.05;1.23;;;6.50;34.40;;;;;;5087080;28;20028;-70
2022/04/02 12:18:57;;;;;;;5.40;1.92;;;6.50;33.80;;;;;;5077667;28;20031;-70
2022/04/02 12:21:37;;;;;;;3.97;1.77;;;6.20;35.10;;;;;;5071381;28;20020;-70
2022/04/02 12:24:04;;;;;;;4.28;1.83;;;6.20;36.70;;;;;;5071224;28;20103;-70
2022/04/02 12:26:31;;;;;;;2.47;1.75;;;6.40;35.50;;;;;;5071222;28;20051;-71
2022/04/02 12:28:59;;;;;;;10.02;3.90;;;6.40;35.00;;;;;;5074208;28;20488;-71
2022/04/02 12:31:27;;;;;;;4.50;1.83;;;6.50;36.20;;;;;;5071488;28;20317;-69
2022/04/02 12:33:54;;;;;;;3.75;2.33;;;6.60;35.70;;;;;;5071180;28;20032;-71
2022/04/02 12:36:31;;;;;;;4.50;2.08;;;6.90;37.30;;;;;;5069961;28;20052;-70
2022/04/02 12:39:10;;;;;;;4.53;2.13;;;7.10;36.70;;;;;;5070905;28;20423;-71
2022/04/02 12:41:47;;;;;;;6.25;1.92;;;7.10;36.90;;;;;;5071081;28;20033;-71
2022/04/02 12:44:17;;;;;;;2.20;1.63;;;7.20;35.40;;;;;;5071202;28;20055;-71
2022/04/02 12:46:42;;;;;;;2.22;1.70;;;6.80;35.50;;;;;;5071510;28;20021;-70
2022/04/02 12:49:08;;;;;;;2.90;1.33;;;6.80;37.00;;;;;;5070979;28;20439;-71
2022/04/02 12:51:34;;;;;;;5.90;3.28;;;7.10;37.00;;;;;;5070258;28;20108;-71
2022/04/02 12:54:03;;;;;;;7.38;3.08;;;7.50;35.20;;;;;;5071172;28;20033;-70
2022/04/02 12:56:38;;;;;;;4.53;1.95;;;7.40;34.60;;;;;;5075775;28;20078;-70
2022/04/02 12:59:19;;;;;;;5.00;1.95;;;7.10;35.10;;;;;;5090975;28;20431;-70
2022/04/02 13:01:46;;;;;;;5.07;2.13;;;7.00;36.00;;;;;;5091706;28;20020;-70
2022/04/02 13:04:12;;;;;;;3.50;1.65;;;7.30;35.60;;;;;;5089848;28;20558;-71
2022/04/02 13:06:47;;;;;;;6.40;2.63;;;7.30;36.30;;;;;;5091014;28;20027;-71
2022/04/02 13:09:17;;;;;;;8.98;4.85;;;7.40;36.40;;;;;;5090986;28;20080;-71
2022/04/02 13:11:55;;;;;;;4.82;3.03;;;7.70;35.60;;;;;;5078097;28;20024;-71
2022/04/02 13:14:26;;;;;;;2.97;1.85;;;7.90;34.40;;;;;;5073006;28;20111;-70